Time;durP1;ratioP1;P1;durP2;ratioP2;P2;SDS_P1;SDS_P2;PMS_P1;PMS_P2;Temp;Humidity;BMP_temperature;BMP_pressure;BME280_temperature;BME280_humidity;BME280_pressure;Samples;Min_cycle;Max_cycle;Signal;HPM_P1;HPM_P2
2023/08/20 00:00:40;;;;;;;;;;;22.60;74.50;;;;;;5051724;28;810;-67
2023/08/20 00:03:12;;;;;;;;;;;22.60;74.50;;;;;;5046796;28;872;-68
2023/08/20 00:05:38;;;;;;;;;;;22.60;74.50;;;;;;5050996;28;1906;-68
2023/08/20 00:08:04;;;;;;;;;;;22.60;74.50;;;;;;5044504;28;1343;-68
2023/08/20 00:10:30;;;;;;;;;;;22.60;74.50;;;;;;5051303;28;936;-67
2023/08/20 00:12:55;;;;;;;;;;;22.60;74.50;;;;;;5044718;28;898;-68
2023/08/20 00:15:26;;;;;;;;;;;22.60;74.50;;;;;;5050947;28;871;-67
2023/08/20 00:17:51;;;;;;;;;;;22.60;74.50;;;;;;5050257;28;1349;-67
2023/08/20 00:20:17;;;;;;;;;;;22.60;74.50;;;;;;5045047;28;1334;-67
2023/08/20 00:22:44;;;;;;;;;;;22.60;74.50;;;;;;5051418;28;1417;-68
2023/08/20 00:25:10;;;;;;;;;;;22.60;74.50;;;;;;5050486;28;1972;-67
2023/08/20 00:27:36;;;;;;;;;;;22.60;74.50;;;;;;5048564;28;1362;-66
2023/08/20 00:30:02;;;;;;;;;;;22.50;74.40;;;;;;5050486;28;1530;-67
2023/08/20 00:32:28;;;;;;;;;;;22.50;74.40;;;;;;5050633;28;856;-66
2023/08/20 00:34:53;;;;;;;;;;;22.60;74.50;;;;;;5050999;28;839;-67
2023/08/20 00:37:19;;;;;;;;;;;22.50;74.40;;;;;;5050047;28;1286;-67
2023/08/20 00:39:44;;;;;;;;;;;22.60;74.50;;;;;;5050080;28;883;-66
2023/08/20 00:42:10;;;;;;;;;;;22.60;74.50;;;;;;5050574;28;784;-68
2023/08/20 00:44:35;;;;;;;;;;;22.60;74.50;;;;;;5044702;28;912;-67
2023/08/20 00:47:02;;;;;;;;;;;22.50;74.40;;;;;;5050490;28;1965;-67
2023/08/20 00:49:27;;;;;;;;;;;22.60;74.50;;;;;;5049671;28;1247;-67
2023/08/20 00:51:53;;;;;;;;;;;22.60;74.50;;;;;;5050462;28;839;-67
2023/08/20 00:54:19;;;;;;;;;;;22.60;74.50;;;;;;5047266;28;930;-67
2023/08/20 00:56:44;;;;;;;;;;;22.60;74.50;;;;;;5045877;28;848;-67
2023/08/20 00:59:10;;;;;;;;;;;22.60;74.50;;;;;;5049323;28;1327;-68
2023/08/20 01:01:35;;;;;;;;;;;22.60;74.50;;;;;;5049123;28;1151;-67
2023/08/20 01:04:01;;;;;;;;;;;22.60;74.40;;;;;;5032897;28;1447;-67
2023/08/20 01:06:39;;;;;;;;;;;22.60;74.40;;;;;;5050681;28;1997;-68
2023/08/20 01:09:28;;;;;;;;;;;22.60;74.40;;;;;;5032242;28;1393;-67
2023/08/20 01:11:55;;;;;;;;;;;22.60;74.40;;;;;;5051683;28;804;-66
2023/08/20 01:14:20;;;;;;;;;;;22.60;74.50;;;;;;5039500;28;1877;-68
2023/08/20 01:16:46;;;;;;;;;;;22.60;74.40;;;;;;5049632;28;1018;-67
2023/08/20 01:19:13;;;;;;;;;;;22.60;74.40;;;;;;5049854;28;1295;-67
2023/08/20 01:21:39;;;;;;;;;;;22.60;74.50;;;;;;5043745;28;1397;-66
2023/08/20 01:24:11;;;;;;;;;;;22.60;74.40;;;;;;5039859;28;809;-66
2023/08/20 01:26:56;;;;;;;;;;;22.60;74.40;;;;;;5050476;28;1960;-66
2023/08/20 01:29:22;;;;;;;;;;;22.60;74.40;;;;;;5050176;28;1460;-67
2023/08/20 01:31:47;;;;;;;;;;;22.60;74.40;;;;;;5046752;28;820;-68
2023/08/20 01:34:13;;;;;;;;;;;22.60;74.50;;;;;;5045277;28;1078;-67
2023/08/20 01:36:38;;;;;;;;;;;22.60;74.40;;;;;;5046936;28;883;-67
2023/08/20 01:39:04;;;;;;;;;;;22.60;74.50;;;;;;5050542;28;1279;-68
2023/08/20 01:41:30;;;;;;;;;;;22.60;74.50;;;;;;5051290;28;871;-67
2023/08/20 01:43:56;;;;;;;;;;;22.60;75.20;;;;;;5050261;28;765;-67
2023/08/20 01:46:21;;;;;;;;;;;22.50;74.40;;;;;;5051386;28;1893;-66
2023/08/20 01:48:47;;;;;;;;;;;22.60;74.50;;;;;;5050835;28;1373;-66
2023/08/20 01:51:12;;;;;;;;;;;22.60;74.50;;;;;;5051163;28;879;-68
2023/08/20 01:53:37;;;;;;;;;;;22.60;74.50;;;;;;5050916;28;879;-67
2023/08/20 01:56:03;;;;;;;;;;;22.60;74.50;;;;;;5050930;28;1006;-67
2023/08/20 01:58:28;;;;;;;;;;;22.60;74.50;;;;;;5049133;28;1256;-67
2023/08/20 02:00:54;;;;;;;;;;;22.60;74.50;;;;;;5049103;28;1054;-66
2023/08/20 02:03:19;;;;;;;;;;;22.60;74.50;;;;;;5049977;28;1002;-66
2023/08/20 02:05:45;;;;;;;;;;;22.60;74.50;;;;;;5049512;28;1902;-66
2023/08/20 02:08:10;;;;;;;;;;;22.60;74.50;;;;;;5049171;28;1263;-66
2023/08/20 02:10:35;;;;;;;;;;;22.60;74.50;;;;;;5049750;28;1021;-67
2023/08/20 02:13:01;;;;;;;;;;;22.60;74.50;;;;;;5049789;28;834;-67
2023/08/20 02:15:27;;;;;;;;;;;22.60;75.20;;;;;;5049588;28;785;-68
2023/08/20 02:17:52;;;;;;;;;;;22.60;74.50;;;;;;5043959;28;1355;-68
2023/08/20 02:20:18;;;;;;;;;;;22.60;74.50;;;;;;5049278;28;1389;-68
2023/08/20 02:22:43;;;;;;;;;;;22.60;74.50;;;;;;5049334;28;995;-68
2023/08/20 02:25:09;;;;;;;;;;;22.60;74.50;;;;;;5049371;28;1894;-67
2023/08/20 02:27:34;;;;;;;;;;;22.60;74.50;;;;;;5049460;28;1307;-67
2023/08/20 02:30:00;;;;;;;;;;;22.60;74.50;;;;;;5048600;28;796;-67
2023/08/20 02:32:25;;;;;;;;;;;22.60;74.50;;;;;;5048963;28;875;-68
2023/08/20 02:34:51;;;;;;;;;;;22.60;74.50;;;;;;5049366;28;934;-67
2023/08/20 02:37:16;;;;;;;;;;;22.60;74.50;;;;;;5049630;28;1232;-68
2023/08/20 02:39:42;;;;;;;;;;;22.60;74.50;;;;;;5047701;28;935;-67
2023/08/20 02:42:07;;;;;;;;;;;22.60;74.50;;;;;;5052670;28;824;-67
2023/08/20 02:44:36;;;;;;;;;;;22.60;74.50;;;;;;5053123;28;871;-67
2023/08/20 02:47:02;;;;;;;;;;;22.60;74.50;;;;;;5052223;28;1996;-67
2023/08/20 02:49:27;;;;;;;;;;;22.60;74.50;;;;;;5052107;28;1178;-67
2023/08/20 02:51:53;;;;;;;;;;;22.60;74.50;;;;;;5052771;28;930;-67
2023/08/20 02:54:18;;;;;;;;;;;22.60;74.50;;;;;;5053191;28;883;-67
2023/08/20 02:56:44;;;;;;;;;;;22.60;74.50;;;;;;5053386;28;835;-67
2023/08/20 02:59:09;;;;;;;;;;;22.60;75.30;;;;;;5067018;28;1262;-68
2023/08/20 03:01:35;;;;;;;;;;;22.60;74.50;;;;;;5052791;28;880;-67
2023/08/20 03:04:01;;;;;;;;;;;22.60;74.50;;;;;;5052769;28;848;-68
2023/08/20 03:06:26;;;;;;;;;;;22.60;74.50;;;;;;5052490;28;1996;-67
2023/08/20 03:08:52;;;;;;;;;;;22.60;74.50;;;;;;5051853;28;1316;-66
2023/08/20 03:11:17;;;;;;;;;;;22.60;74.50;;;;;;5052382;28;821;-67
2023/08/20 03:13:43;;;;;;;;;;;22.60;74.50;;;;;;5052429;28;864;-67
2023/08/20 03:16:08;;;;;;;;;;;22.60;74.50;;;;;;5052509;28;859;-67
2023/08/20 03:18:34;;;;;;;;;;;22.60;74.50;;;;;;5051520;28;1370;-67
2023/08/20 03:20:59;;;;;;;;;;;22.60;74.50;;;;;;5052229;28;864;-66
2023/08/20 03:23:25;;;;;;;;;;;22.60;74.50;;;;;;5052149;28;1319;-67
2023/08/20 03:25:50;;;;;;;;;;;22.60;74.50;;;;;;5052198;28;1963;-66
2023/08/20 03:28:17;;;;;;;;;;;22.60;74.50;;;;;;5051338;28;1381;-67
2023/08/20 03:30:42;;;;;;;;;;;22.60;74.50;;;;;;5051322;28;1022;-66
2023/08/20 03:33:08;;;;;;;;;;;22.60;74.50;;;;;;5054222;28;894;-67
2023/08/20 03:35:33;;;;;;;;;;;22.60;74.40;;;;;;5052174;28;919;-66
2023/08/20 03:37:59;;;;;;;;;;;22.60;74.40;;;;;;5051148;28;1277;-67
2023/08/20 03:40:24;;;;;;;;;;;22.60;74.50;;;;;;5052340;28;843;-66
2023/08/20 03:42:49;;;;;;;;;;;22.60;74.50;;;;;;5052015;28;796;-66
2023/08/20 03:45:15;;;;;;;;;;;22.60;74.50;;;;;;5051697;28;1940;-66
2023/08/20 03:47:43;;;;;;;;;;;22.60;74.50;;;;;;5051573;28;1340;-67
2023/08/20 03:50:09;;;;;;;;;;;22.60;74.50;;;;;;5050044;28;853;-66
2023/08/20 03:52:34;;;;;;;;;;;22.60;74.50;;;;;;5043939;28;876;-67
2023/08/20 03:55:00;;;;;;;;;;;22.60;74.50;;;;;;5051809;28;883;-66
2023/08/20 03:57:26;;;;;;;;;;;22.60;74.50;;;;;;5048114;28;1272;-66
2023/08/20 03:59:51;;;;;;;;;;;22.60;74.50;;;;;;5050956;28;886;-67
2023/08/20 04:02:17;;;;;;;;;;;22.60;74.50;;;;;;5051745;28;883;-67
2023/08/20 04:04:42;;;;;;;;;;;22.60;74.50;;;;;;5051488;28;876;-67
2023/08/20 04:07:08;;;;;;;;;;;22.60;74.50;;;;;;5051246;28;1968;-67
2023/08/20 04:09:34;;;;;;;;;;;22.60;74.50;;;;;;5050899;28;1227;-67
2023/08/20 04:11:59;;;;;;;;;;;22.60;74.50;;;;;;5046520;28;840;-67
2023/08/20 04:14:24;;;;;;;;;;;22.60;74.50;;;;;;5050993;28;1278;-67
2023/08/20 04:16:50;;;;;;;;;;;22.60;74.50;;;;;;5051429;28;816;-67
2023/08/20 04:19:15;;;;;;;;;;;22.60;74.40;;;;;;5050546;28;1387;-67
2023/08/20 04:21:41;;;;;;;;;;;22.60;74.40;;;;;;5051177;28;1346;-67
2023/08/20 04:24:06;;;;;;;;;;;22.60;74.50;;;;;;5051062;28;798;-67
2023/08/20 04:26:32;;;;;;;;;;;22.60;74.50;;;;;;5051200;28;1973;-67
2023/08/20 04:28:57;;;;;;;;;;;22.60;74.50;;;;;;5049851;28;1301;-67
2023/08/20 04:31:23;;;;;;;;;;;22.60;74.50;;;;;;5050739;28;1345;-68
2023/08/20 04:33:48;;;;;;;;;;;22.60;74.50;;;;;;5050353;28;1485;-68
2023/08/20 04:36:13;;;;;;;;;;;22.60;74.50;;;;;;5050248;28;1478;-68
2023/08/20 04:38:39;;;;;;;;;;;22.60;74.50;;;;;;5050255;28;1415;-67
2023/08/20 04:41:04;;;;;;;;;;;22.60;74.50;;;;;;5051080;28;800;-67
2023/08/20 04:43:30;;;;;;;;;;;22.60;74.50;;;;;;5051538;28;1001;-67
2023/08/20 04:45:55;;;;;;;;;;;22.60;74.40;;;;;;5051476;28;1969;-67
2023/08/20 04:48:21;;;;;;;;;;;22.60;74.50;;;;;;5050089;28;1250;-67
2023/08/20 04:50:46;;;;;;;;;;;22.60;74.40;;;;;;5050601;28;833;-67
2023/08/20 04:53:12;;;;;;;;;;;22.60;74.50;;;;;;5050716;28;796;-67
2023/08/20 04:55:37;;;;;;;;;;;22.60;74.40;;;;;;5050658;28;879;-67
2023/08/20 04:58:03;;;;;;;;;;;22.60;74.50;;;;;;5049341;28;1247;-67
2023/08/20 05:00:28;;;;;;;;;;;22.60;74.50;;;;;;5054566;28;1230;-67
2023/08/20 05:02:55;;;;;;;;;;;22.60;74.50;;;;;;5055429;28;1847;-68
2023/08/20 05:05:21;;;;;;;;;;;22.60;74.50;;;;;;5048127;28;2415;-68
2023/08/20 05:07:46;;;;;;;;;;;22.60;74.50;;;;;;5049003;28;1249;-67
2023/08/20 05:10:12;;;;;;;;;;;22.60;74.50;;;;;;5049472;28;888;-67
2023/08/20 05:12:37;;;;;;;;;;;22.60;74.50;;;;;;5048813;28;887;-68
2023/08/20 05:15:03;;;;;;;;;;;22.60;74.50;;;;;;5047903;28;950;-68
2023/08/20 05:17:29;;;;;;;;;;;22.60;74.50;;;;;;5043139;28;1290;-67
2023/08/20 05:19:54;;;;;;;;;;;22.60;74.50;;;;;;5048831;28;877;-67
2023/08/20 05:22:20;;;;;;;;;;;22.60;74.50;;;;;;5049329;28;1319;-66
2023/08/20 05:24:45;;;;;;;;;;;22.60;74.50;;;;;;5049542;28;900;-67
2023/08/20 05:27:14;;;;;;;;;;;22.60;74.50;;;;;;5049218;28;1969;-67
2023/08/20 05:29:39;;;;;;;;;;;22.60;74.50;;;;;;5048377;28;844;-67
2023/08/20 05:32:05;;;;;;;;;;;22.60;74.50;;;;;;5043357;28;1007;-68
2023/08/20 05:34:31;;;;;;;;;;;22.60;74.50;;;;;;5049003;28;804;-69
2023/08/20 05:36:56;;;;;;;;;;;22.60;74.50;;;;;;5049303;28;1010;-67
2023/08/20 05:39:23;;;;;;;;;;;22.60;74.50;;;;;;5047569;28;1316;-68
2023/08/20 05:41:48;;;;;;;;;;;22.60;74.50;;;;;;5049180;28;919;-65
2023/08/20 05:44:14;;;;;;;;;;;22.60;74.50;;;;;;5043686;28;855;-68
2023/08/20 05:46:40;;;;;;;;;;;22.60;74.50;;;;;;5048441;28;1910;-69
2023/08/20 05:49:06;;;;;;;;;;;22.60;74.50;;;;;;5047393;28;1290;-68
2023/08/20 05:51:31;;;;;;;;;;;22.60;74.60;;;;;;5043452;28;807;-69
2023/08/20 05:53:57;;;;;;;;;;;22.60;74.50;;;;;;5048902;28;935;-68
2023/08/20 05:56:22;;;;;;;;;;;22.60;74.50;;;;;;5043668;28;1002;-68
2023/08/20 05:58:48;;;;;;;;;;;22.60;74.50;;;;;;5048169;28;1260;-68
2023/08/20 06:01:13;;;;;;;;;;;22.60;74.50;;;;;;5048882;28;1340;-68
2023/08/20 06:03:39;;;;;;;;;;;22.60;74.50;;;;;;5048724;28;923;-68
2023/08/20 06:06:04;;;;;;;;;;;22.60;74.50;;;;;;5048677;28;1969;-68
2023/08/20 06:08:29;;;;;;;;;;;22.60;74.50;;;;;;5048341;28;1236;-68
2023/08/20 06:10:55;;;;;;;;;;;22.60;74.60;;;;;;5048713;28;990;-68
2023/08/20 06:13:20;;;;;;;;;;;22.60;74.50;;;;;;5050930;28;946;-68
2023/08/20 06:15:46;;;;;;;;;;;22.60;74.50;;;;;;5052383;28;1069;-68
2023/08/20 06:18:11;;;;;;;;;;;22.60;74.50;;;;;;5051392;28;1351;-69
2023/08/20 06:20:37;;;;;;;;;;;22.60;74.50;;;;;;5034649;28;1343;-68
2023/08/20 06:23:03;;;;;;;;;;;22.60;74.50;;;;;;5052414;28;899;-68
2023/08/20 06:25:28;;;;;;;;;;;22.60;74.50;;;;;;5052011;28;1906;-68
2023/08/20 06:27:54;;;;;;;;;;;22.60;74.50;;;;;;5048061;28;1342;-68
2023/08/20 06:30:19;;;;;;;;;;;22.60;74.50;;;;;;5053255;28;824;-67
2023/08/20 06:32:45;;;;;;;;;;;22.60;74.50;;;;;;5051032;28;866;-65
2023/08/20 06:35:11;;;;;;;;;;;22.60;74.50;;;;;;5052598;28;1332;-67
2023/08/20 06:37:37;;;;;;;;;;;22.60;74.50;;;;;;5052618;28;1482;-66
2023/08/20 06:40:03;;;;;;;;;;;22.60;74.50;;;;;;5051583;28;824;-67
2023/08/20 06:42:31;;;;;;;;;;;22.60;74.50;;;;;;5052324;28;932;-68
2023/08/20 06:44:57;;;;;;;;;;;22.60;74.50;;;;;;5051718;28;1278;-68
2023/08/20 06:47:22;;;;;;;;;;;22.60;74.50;;;;;;5051714;28;1895;-68
2023/08/20 06:49:49;;;;;;;;;;;22.60;74.50;;;;;;5045781;28;1253;-68
2023/08/20 06:52:14;;;;;;;;;;;22.60;74.50;;;;;;5041869;28;943;-68
2023/08/20 06:54:40;;;;;;;;;;;22.60;74.50;;;;;;5045752;28;876;-73
2023/08/20 06:57:05;;;;;;;;;;;22.60;74.50;;;;;;5052806;28;897;-71
2023/08/20 06:59:31;;;;;;;;;;;22.60;74.50;;;;;;5052288;28;1145;-68
2023/08/20 07:01:56;;;;;;;;;;;22.60;74.50;;;;;;5052393;28;1046;-70
2023/08/20 07:04:21;;;;;;;;;;;22.60;74.50;;;;;;5052643;28;1157;-71
2023/08/20 07:06:47;;;;;;;;;;;22.60;74.50;;;;;;5051450;28;2177;-71
2023/08/20 07:09:12;;;;;;;;;;;22.60;74.50;;;;;;5050766;28;1262;-71
2023/08/20 07:11:38;;;;;;;;;;;22.60;74.50;;;;;;5051417;28;1352;-71
2023/08/20 07:14:03;;;;;;;;;;;22.60;74.50;;;;;;5050377;28;1901;-71
2023/08/20 07:16:29;;;;;;;;;;;22.60;74.50;;;;;;5050106;28;1575;-71
2023/08/20 07:18:54;;;;;;;;;;;22.60;74.50;;;;;;5048757;28;1375;-70
2023/08/20 07:21:20;;;;;;;;;;;22.60;74.40;;;;;;5051211;28;1863;-70
2023/08/20 07:23:45;;;;;;;;;;;22.60;74.50;;;;;;5043744;28;1329;-71
2023/08/20 07:26:12;;;;;;;;;;;22.60;74.50;;;;;;5052153;28;1890;-68
2023/08/20 07:31:22;;;;;;;;;;;22.60;74.50;;;;;;5048585;28;824;-68
2023/08/20 07:33:47;;;;;;;;;;;22.60;74.50;;;;;;5051979;28;1006;-67
2023/08/20 07:36:13;;;;;;;;;;;22.60;74.50;;;;;;5047696;28;1928;-68
2023/08/20 07:38:41;;;;;;;;;;;22.60;74.50;;;;;;5050323;28;2244;-67
2023/08/20 07:41:06;;;;;;;;;;;22.60;74.50;;;;;;5051171;28;1551;-68
2023/08/20 07:43:32;;;;;;;;;;;22.60;74.50;;;;;;5051963;28;1345;-68
2023/08/20 07:45:57;;;;;;;;;;;22.60;74.50;;;;;;5043653;28;1918;-67
2023/08/20 07:48:23;;;;;;;;;;;22.60;74.50;;;;;;5052140;28;1347;-68
2023/08/20 07:50:48;;;;;;;;;;;22.60;74.50;;;;;;5051537;28;917;-68
2023/08/20 07:53:14;;;;;;;;;;;22.60;74.50;;;;;;5051790;28;1072;-68
2023/08/20 07:55:39;;;;;;;;;;;22.60;74.50;;;;;;5051329;28;838;-67
2023/08/20 07:58:04;;;;;;;;;;;22.60;74.50;;;;;;5050939;28;1284;-67
2023/08/20 08:00:30;;;;;;;;;;;22.60;74.60;;;;;;5051062;28;894;-68
2023/08/20 08:02:55;;;;;;;;;;;22.60;74.50;;;;;;5050338;28;1904;-68
2023/08/20 08:05:21;;;;;;;;;;;22.60;74.50;;;;;;5050120;28;1447;-67
2023/08/20 08:07:46;;;;;;;;;;;22.60;74.50;;;;;;5050570;28;1379;-68
2023/08/20 08:10:12;;;;;;;;;;;22.60;74.50;;;;;;5051095;28;1300;-67
2023/08/20 08:12:37;;;;;;;;;;;22.60;74.50;;;;;;5051442;28;867;-67
2023/08/20 08:15:03;;;;;;;;;;;22.60;74.50;;;;;;5052109;28;1211;-68
2023/08/20 08:17:28;;;;;;;;;;;22.60;74.50;;;;;;5051196;28;1261;-67
2023/08/20 08:19:55;;;;;;;;;;;22.60;74.50;;;;;;5030070;28;1493;-68
2023/08/20 08:22:20;;;;;;;;;;;22.60;74.50;;;;;;5050956;28;1249;-67
2023/08/20 08:24:46;;;;;;;;;;;22.60;74.50;;;;;;5049686;28;877;-67
2023/08/20 08:27:11;;;;;;;;;;;22.60;74.50;;;;;;5050795;28;1958;-68
2023/08/20 08:29:37;;;;;;;;;;;22.60;74.50;;;;;;5045832;28;1200;-68
2023/08/20 08:32:02;;;;;;;;;;;22.60;74.50;;;;;;5050642;28;1387;-68
2023/08/20 08:34:28;;;;;;;;;;;22.60;74.50;;;;;;5049995;28;911;-69
2023/08/20 08:36:53;;;;;;;;;;;22.60;74.50;;;;;;5050828;28;817;-70
2023/08/20 08:39:19;;;;;;;;;;;22.60;74.40;;;;;;5050410;28;1329;-69
2023/08/20 08:41:44;;;;;;;;;;;22.60;74.40;;;;;;5051032;28;1374;-70
2023/08/20 08:44:10;;;;;;;;;;;22.60;74.40;;;;;;5044749;28;930;-69
2023/08/20 08:46:36;;;;;;;;;;;22.60;74.40;;;;;;5046208;28;1898;-69
2023/08/20 08:49:01;;;;;;;;;;;22.60;74.40;;;;;;5049855;28;1189;-68
2023/08/20 08:51:27;;;;;;;;;;;22.60;74.40;;;;;;5035767;28;1353;-69
2023/08/20 08:53:52;;;;;;;;;;;22.60;74.40;;;;;;5050600;28;1352;-70
2023/08/20 08:56:18;;;;;;;;;;;22.60;74.40;;;;;;5045325;28;1526;-69
2023/08/20 08:58:43;;;;;;;;;;;22.60;74.40;;;;;;5049163;28;1260;-69
2023/08/20 09:01:08;;;;;;;;;;;22.60;74.40;;;;;;5050063;28;891;-69
2023/08/20 09:03:34;;;;;;;;;;;22.60;74.40;;;;;;5049037;28;2426;-69
2023/08/20 09:06:01;;;;;;;;;;;22.60;74.40;;;;;;5049705;28;1989;-69
2023/08/20 09:08:28;;;;;;;;;;;22.60;74.50;;;;;;5048829;28;1425;-69
2023/08/20 09:10:54;;;;;;;;;;;22.60;74.50;;;;;;5050235;28;814;-69
2023/08/20 09:13:26;;;;;;;;;;;22.60;74.40;;;;;;5049884;28;1034;-69
2023/08/20 09:15:52;;;;;;;;;;;22.60;74.50;;;;;;5043997;28;1239;-69
2023/08/20 09:18:17;;;;;;;;;;;22.60;74.40;;;;;;5049471;28;1296;-69
2023/08/20 09:20:43;;;;;;;;;;;22.60;74.50;;;;;;5050249;28;919;-69
2023/08/20 09:23:13;;;;;;;;;;;22.60;74.40;;;;;;5049559;28;1304;-69
2023/08/20 09:25:38;;;;;;;;;;;22.60;74.40;;;;;;5026460;28;4235;-69
2023/08/20 09:28:04;;;;;;;;;;;22.60;74.40;;;;;;5048858;28;1280;-69
2023/08/20 09:30:29;;;;;;;;;;;22.60;74.40;;;;;;5049998;28;792;-69
2023/08/20 09:33:06;;;;;;;;;;;22.60;74.50;;;;;;5050008;28;862;-69
2023/08/20 09:35:31;;;;;;;;;;;22.60;74.40;;;;;;5049598;28;871;-69
2023/08/20 09:38:01;;;;;;;;;;;22.60;74.40;;;;;;5048969;28;1230;-70
2023/08/20 09:40:26;;;;;;;;;;;22.60;74.50;;;;;;5049934;28;827;-69
2023/08/20 09:42:52;;;;;;;;;;;22.60;74.40;;;;;;5049756;28;828;-69
2023/08/20 09:45:18;;;;;;;;;;;22.60;74.50;;;;;;5045801;28;879;-69
2023/08/20 09:47:44;;;;;;;;;;;22.60;74.40;;;;;;5050597;28;1969;-69
2023/08/20 09:50:10;;;;;;;;;;;22.60;74.40;;;;;;5045257;28;946;-70
2023/08/20 09:52:38;;;;;;;;;;;22.60;74.40;;;;;;5053749;28;810;-70
2023/08/20 09:55:07;;;;;;;;;;;22.60;74.40;;;;;;5053891;28;1014;-70
2023/08/20 09:57:36;;;;;;;;;;;22.60;74.40;;;;;;5049856;28;1272;-70
2023/08/20 10:00:03;;;;;;;;;;;22.60;74.50;;;;;;5054019;28;875;-69
2023/08/20 10:02:29;;;;;;;;;;;22.60;74.50;;;;;;5054652;28;930;-69
2023/08/20 10:04:54;;;;;;;;;;;22.60;74.40;;;;;;5053638;28;848;-69
2023/08/20 10:07:19;;;;;;;;;;;22.60;74.40;;;;;;5046637;28;1977;-69
2023/08/20 10:09:45;;;;;;;;;;;22.60;74.40;;;;;;5052975;28;1153;-69
2023/08/20 10:12:12;;;;;;;;;;;22.60;74.50;;;;;;5053530;28;830;-69
2023/08/20 10:14:37;;;;;;;;;;;22.60;74.40;;;;;;5046342;28;900;-70
2023/08/20 10:17:09;;;;;;;;;;;22.60;74.40;;;;;;5049756;28;1144;-69
2023/08/20 10:19:37;;;;;;;;;;;22.60;74.40;;;;;;5052676;28;1432;-69
2023/08/20 10:22:03;;;;;;;;;;;22.60;74.40;;;;;;5043856;28;1310;-69
2023/08/20 10:24:28;;;;;;;;;;;22.60;74.40;;;;;;5058104;28;978;-69
2023/08/20 10:27:10;;;;;;;;;;;22.60;74.40;;;;;;5053214;28;1935;-69
2023/08/20 10:29:36;;;;;;;;;;;22.60;74.40;;;;;;5051410;28;1331;-69
2023/08/20 10:32:11;;;;;;;;;;;22.60;74.40;;;;;;5048635;28;866;-69
2023/08/20 10:34:38;;;;;;;;;;;22.60;74.40;;;;;;5045979;28;866;-69
2023/08/20 10:37:10;;;;;;;;;;;22.60;74.40;;;;;;5045321;28;910;-69
2023/08/20 10:39:36;;;;;;;;;;;22.60;74.40;;;;;;5051872;28;1277;-69
2023/08/20 10:42:07;;;;;;;;;;;22.60;74.40;;;;;;5047445;28;969;-69
2023/08/20 10:44:52;;;;;;;;;;;22.60;74.40;;;;;;5052216;28;923;-70
2023/08/20 10:47:18;;;;;;;;;;;22.60;74.40;;;;;;5052698;28;1987;-69
2023/08/20 10:49:44;;;;;;;;;;;22.60;74.40;;;;;;5052228;28;848;-69
2023/08/20 10:52:09;;;;;;;;;;;22.60;74.40;;;;;;5052693;28;871;-69
2023/08/20 10:54:35;;;;;;;;;;;22.60;74.40;;;;;;5053282;28;888;-69
2023/08/20 10:57:00;;;;;;;;;;;22.60;74.40;;;;;;5044112;28;1194;-70
2023/08/20 10:59:26;;;;;;;;;;;22.60;74.40;;;;;;5046717;28;1271;-70
2023/08/20 11:01:52;;;;;;;;;;;22.60;74.40;;;;;;5046958;28;1274;-69
2023/08/20 11:04:18;;;;;;;;;;;22.60;74.40;;;;;;5052705;28;856;-70
2023/08/20 11:06:44;;;;;;;;;;;22.60;74.40;;;;;;5052213;28;1910;-69
2023/08/20 11:09:10;;;;;;;;;;;22.60;74.40;;;;;;5051467;28;1358;-69
2023/08/20 11:11:37;;;;;;;;;;;22.60;74.40;;;;;;5052597;28;944;-69
2023/08/20 11:14:09;;;;;;;;;;;22.60;74.40;;;;;;5051569;28;839;-70
2023/08/20 11:16:36;;;;;;;;;;;22.60;74.40;;;;;;5052495;28;841;-70
2023/08/20 11:19:05;;;;;;;;;;;22.60;74.40;;;;;;5048358;28;1375;-69
2023/08/20 11:21:31;;;;;;;;;;;22.60;74.40;;;;;;5051948;28;852;-70
2023/08/20 11:23:56;;;;;;;;;;;22.60;74.40;;;;;;5043462;28;1640;-70
2023/08/20 11:26:22;;;;;;;;;;;22.60;74.40;;;;;;5044620;28;2125;-69
2023/08/20 11:28:47;;;;;;;;;;;22.60;74.40;;;;;;5051095;28;1444;-69
2023/08/20 11:31:12;;;;;;;;;;;22.60;74.30;;;;;;5049761;28;1998;-69
2023/08/20 11:33:38;;;;;;;;;;;22.60;74.40;;;;;;5050967;28;1840;-69
2023/08/20 11:36:05;;;;;;;;;;;22.60;74.40;;;;;;5048542;28;1341;-68
2023/08/20 11:38:30;;;;;;;;;;;22.60;74.40;;;;;;5045291;28;1898;-69
2023/08/20 11:40:57;;;;;;;;;;;22.60;74.40;;;;;;5043997;28;1490;-68
2023/08/20 11:43:23;;;;;;;;;;;22.60;74.30;;;;;;5051671;28;980;-69
2023/08/20 11:45:48;;;;;;;;;;;22.60;74.30;;;;;;5050672;28;1902;-68
2023/08/20 11:48:14;;;;;;;;;;;22.60;74.40;;;;;;5051110;28;1306;-68
2023/08/20 11:50:40;;;;;;;;;;;22.60;74.40;;;;;;5055703;28;1193;-67
2023/08/20 11:53:06;;;;;;;;;;;22.60;74.40;;;;;;5050545;28;1215;-68
2023/08/20 11:55:31;;;;;;;;;;;22.60;74.30;;;;;;5051712;28;1497;-68
2023/08/20 11:57:57;;;;;;;;;;;22.60;74.30;;;;;;5050781;28;1385;-67
2023/08/20 12:00:28;;;;;;;;;;;22.60;74.40;;;;;;5045943;28;1032;-68
2023/08/20 12:02:57;;;;;;;;;;;22.60;74.30;;;;;;5046097;28;1334;-69
2023/08/20 12:05:28;;;;;;;;;;;22.60;74.30;;;;;;5045393;28;1560;-68
2023/08/20 12:07:54;;;;;;;;;;;22.60;74.40;;;;;;5044568;28;1929;-68
2023/08/20 12:10:23;;;;;;;;;;;22.60;74.40;;;;;;5047853;28;991;-69
2023/08/20 12:12:49;;;;;;;;;;;22.60;74.40;;;;;;5044145;28;1392;-69
2023/08/20 12:15:15;;;;;;;;;;;22.60;74.30;;;;;;5050119;28;1356;-69
2023/08/20 12:17:40;;;;;;;;;;;22.60;74.30;;;;;;5050351;28;1355;-69
2023/08/20 12:20:12;;;;;;;;;;;22.60;74.40;;;;;;5050929;28;1704;-69
2023/08/20 12:22:40;;;;;;;;;;;22.60;74.40;;;;;;5049426;28;1879;-69
2023/08/20 12:25:06;;;;;;;;;;;22.60;74.30;;;;;;5050643;28;1967;-69
2023/08/20 12:27:32;;;;;;;;;;;22.60;74.30;;;;;;5047975;28;2222;-70
2023/08/20 12:29:57;;;;;;;;;;;22.60;74.30;;;;;;5050331;28;1361;-69
2023/08/20 12:32:23;;;;;;;;;;;22.60;74.40;;;;;;5050417;28;1935;-70
2023/08/20 12:34:48;;;;;;;;;;;22.60;74.30;;;;;;5050917;28;1450;-68
2023/08/20 12:37:13;;;;;;;;;;;22.60;74.40;;;;;;5050834;28;939;-69
2023/08/20 12:39:39;;;;;;;;;;;22.60;74.30;;;;;;5049416;28;1316;-70
2023/08/20 12:42:04;;;;;;;;;;;22.70;74.40;;;;;;5048667;28;1409;-69
2023/08/20 12:44:30;;;;;;;;;;;22.60;74.30;;;;;;5050771;28;836;-69
2023/08/20 12:46:55;;;;;;;;;;;22.60;74.30;;;;;;5050278;28;1902;-70
2023/08/20 12:49:21;;;;;;;;;;;22.60;74.30;;;;;;5050069;28;1404;-70
2023/08/20 12:51:46;;;;;;;;;;;22.60;74.30;;;;;;5050882;28;883;-69
2023/08/20 12:54:12;;;;;;;;;;;22.60;74.30;;;;;;5050113;28;1331;-70
2023/08/20 12:56:37;;;;;;;;;;;22.70;74.40;;;;;;5050653;28;844;-70
2023/08/20 12:59:03;;;;;;;;;;;22.60;74.30;;;;;;5049877;28;1286;-70
2023/08/20 13:01:28;;;;;;;;;;;22.60;74.30;;;;;;5046385;28;818;-70
2023/08/20 13:03:54;;;;;;;;;;;22.70;74.40;;;;;;5050906;28;820;-70
2023/08/20 13:06:20;;;;;;;;;;;22.70;74.40;;;;;;5050388;28;1894;-70
2023/08/20 13:08:45;;;;;;;;;;;22.60;74.30;;;;;;5049564;28;1255;-69
2023/08/20 13:11:11;;;;;;;;;;;22.60;74.30;;;;;;5049569;28;1471;-69
2023/08/20 13:13:37;;;;;;;;;;;22.60;74.30;;;;;;5044706;28;1655;-70
2023/08/20 13:16:03;;;;;;;;;;;22.60;74.30;;;;;;5050715;28;1351;-70
2023/08/20 13:18:28;;;;;;;;;;;22.70;74.40;;;;;;5049541;28;1373;-69
2023/08/20 13:20:54;;;;;;;;;;;22.70;74.40;;;;;;5043887;28;887;-69
2023/08/20 13:23:19;;;;;;;;;;;22.70;74.40;;;;;;5050294;28;831;-70
2023/08/20 13:25:45;;;;;;;;;;;22.60;74.30;;;;;;5050088;28;1954;-69
2023/08/20 13:28:10;;;;;;;;;;;22.60;74.30;;;;;;5049561;28;1413;-69
2023/08/20 13:30:36;;;;;;;;;;;22.70;74.40;;;;;;5051309;28;823;-69
2023/08/20 13:33:01;;;;;;;;;;;22.60;74.30;;;;;;5045363;28;788;-70
2023/08/20 13:35:26;;;;;;;;;;;22.70;74.40;;;;;;5050241;28;830;-69
2023/08/20 13:37:52;;;;;;;;;;;22.70;74.40;;;;;;5049094;28;1224;-68
2023/08/20 13:40:18;;;;;;;;;;;22.60;74.30;;;;;;5049888;28;847;-71
2023/08/20 13:42:43;;;;;;;;;;;22.60;74.30;;;;;;5049707;28;883;-69
2023/08/20 13:45:09;;;;;;;;;;;22.70;74.40;;;;;;5050005;28;859;-69
2023/08/20 13:47:34;;;;;;;;;;;22.70;74.40;;;;;;5048402;28;1910;-69
2023/08/20 13:50:00;;;;;;;;;;;22.60;74.30;;;;;;5049121;28;1947;-69
2023/08/20 13:52:25;;;;;;;;;;;22.60;74.30;;;;;;5049580;28;999;-69
2023/08/20 13:54:51;;;;;;;;;;;22.60;74.30;;;;;;5046153;28;884;-70
2023/08/20 13:57:16;;;;;;;;;;;22.60;74.30;;;;;;5049483;28;1842;-70
2023/08/20 13:59:42;;;;;;;;;;;22.70;74.30;;;;;;5047945;28;2067;-69
2023/08/20 14:02:07;;;;;;;;;;;22.60;74.30;;;;;;5049592;28;1259;-68
2023/08/20 14:04:33;;;;;;;;;;;22.70;74.30;;;;;;5049597;28;1397;-69
2023/08/20 14:06:58;;;;;;;;;;;22.70;74.30;;;;;;5049680;28;1910;-68
2023/08/20 14:09:25;;;;;;;;;;;22.70;74.30;;;;;;5042951;28;1299;-70
2023/08/20 14:11:50;;;;;;;;;;;22.60;74.30;;;;;;5049870;28;874;-68
2023/08/20 14:14:16;;;;;;;;;;;22.60;74.30;;;;;;5049875;28;836;-68
2023/08/20 14:16:41;;;;;;;;;;;22.70;74.30;;;;;;5049395;28;890;-69
2023/08/20 14:19:06;;;;;;;;;;;22.70;74.30;;;;;;5048819;28;1278;-68
2023/08/20 14:21:34;;;;;;;;;;;22.70;74.30;;;;;;5049479;28;943;-70
2023/08/20 14:24:00;;;;;;;;;;;22.70;74.30;;;;;;5049630;28;1578;-69
2023/08/20 14:26:25;;;;;;;;;;;22.60;74.30;;;;;;5043943;28;1969;-69
2023/08/20 14:28:51;;;;;;;;;;;22.60;74.30;;;;;;5047436;28;1379;-69
2023/08/20 14:31:16;;;;;;;;;;;22.60;74.30;;;;;;5049711;28;816;-69